sensor_id;sensor_type;location;lat;lon;timestamp;pressure;altitude;pressure_sealevel;temperature;humidity
38780;BME280;29273;49.962;9.768;2023-03-14T00:01:10;97909.34;;;12.52;66.83
38780;BME280;29273;49.962;9.768;2023-03-14T00:03:36;97910.63;;;12.45;66.18
38780;BME280;29273;49.962;9.768;2023-03-14T00:06:03;97919.91;;;12.47;66.50
38780;BME280;29273;49.962;9.768;2023-03-14T00:08:29;97927.34;;;12.45;66.40
38780;BME280;29273;49.962;9.768;2023-03-14T00:10:55;97928.44;;;12.44;66.19
38780;BME280;29273;49.962;9.768;2023-03-14T00:13:20;97923.66;;;12.46;66.37
38780;BME280;29273;49.962;9.768;2023-03-14T00:15:46;97911.97;;;12.47;66.56
38780;BME280;29273;49.962;9.768;2023-03-14T00:18:11;97913.56;;;12.48;66.89
38780;BME280;29273;49.962;9.768;2023-03-14T00:20:37;97921.53;;;12.48;66.78
38780;BME280;29273;49.962;9.768;2023-03-14T00:23:02;97914.09;;;12.45;66.33
38780;BME280;29273;49.962;9.768;2023-03-14T00:25:28;97914.09;;;12.45;66.44
38780;BME280;29273;49.962;9.768;2023-03-14T00:27:53;97919.13;;;12.47;66.53
38780;BME280;29273;49.962;9.768;2023-03-14T00:30:19;97919.13;;;12.47;66.58
38780;BME280;29273;49.962;9.768;2023-03-14T00:32:45;97916.72;;;12.45;66.29
38780;BME280;29273;49.962;9.768;2023-03-14T00:35:11;97919.13;;;12.47;66.35
38780;BME280;29273;49.962;9.768;2023-03-14T00:37:37;97910.88;;;12.43;66.41
38780;BME280;29273;49.962;9.768;2023-03-14T00:40:05;97921.25;;;12.45;66.97
38780;BME280;29273;49.962;9.768;2023-03-14T00:42:32;97917.81;;;12.44;66.47
38780;BME280;29273;49.962;9.768;2023-03-14T00:44:58;97913.28;;;12.45;66.55
38780;BME280;29273;49.962;9.768;2023-03-14T00:47:23;97921.25;;;12.45;66.80
38780;BME280;29273;49.962;9.768;2023-03-14T00:49:49;97913.53;;;12.43;66.44
38780;BME280;29273;49.962;9.768;2023-03-14T00:52:15;97914.09;;;12.45;66.60
38780;BME280;29273;49.962;9.768;2023-03-14T00:54:40;97918.09;;;12.48;66.81
38780;BME280;29273;49.962;9.768;2023-03-14T00:57:06;97924.69;;;12.45;66.58
38780;BME280;29273;49.962;9.768;2023-03-14T00:59:32;97913.81;;;12.47;66.85
38780;BME280;29273;49.962;9.768;2023-03-14T01:01:57;97903.72;;;12.44;66.57
38780;BME280;29273;49.962;9.768;2023-03-14T01:04:22;97905.06;;;12.46;66.71
38780;BME280;29273;49.962;9.768;2023-03-14T01:06:48;97918.09;;;12.48;67.15
38780;BME280;29273;49.962;9.768;2023-03-14T01:09:13;97909.31;;;12.47;66.68
38780;BME280;29273;49.962;9.768;2023-03-14T01:11:40;97909.88;;;12.49;66.67
38780;BME280;29273;49.962;9.768;2023-03-14T01:14:05;97907.22;;;12.49;66.69
38780;BME280;29273;49.962;9.768;2023-03-14T01:16:33;97913.03;;;12.51;66.77
38780;BME280;29273;49.962;9.768;2023-03-14T01:19:02;97911.69;;;12.49;66.53
38780;BME280;29273;49.962;9.768;2023-03-14T01:21:31;97913.56;;;12.53;66.83
38780;BME280;29273;49.962;9.768;2023-03-14T01:23:58;97910.94;;;12.53;66.84
38780;BME280;29273;49.962;9.768;2023-03-14T01:26:26;97911.72;;;12.54;66.66
38780;BME280;29273;49.962;9.768;2023-03-14T01:28:53;97908.81;;;12.55;66.82
38780;BME280;29273;49.962;9.768;2023-03-14T01:31:20;97896.59;;;12.54;66.62
38780;BME280;29273;49.962;9.768;2023-03-14T01:33:46;97906.97;;;12.56;66.52
38780;BME280;29273;49.962;9.768;2023-03-14T01:36:12;97897.91;;;12.57;66.63
38780;BME280;29273;49.962;9.768;2023-03-14T01:38:39;97894.22;;;12.58;66.46
38780;BME280;29273;49.962;9.768;2023-03-14T01:41:11;97884.38;;;12.58;66.61
38780;BME280;29273;49.962;9.768;2023-03-14T01:43:37;97876.69;;;12.57;66.42
38780;BME280;29273;49.962;9.768;2023-03-14T01:54:12;97848.56;;;12.61;66.76
38780;BME280;29273;49.962;9.768;2023-03-14T01:56:41;97851.72;;;12.58;66.38
38780;BME280;29273;49.962;9.768;2023-03-14T01:59:09;97845.88;;;12.56;66.35
38780;BME280;29273;49.962;9.768;2023-03-14T02:01:36;97842.69;;;12.54;65.68
38780;BME280;29273;49.962;9.768;2023-03-14T02:04:04;97837.66;;;12.57;65.89
38780;BME280;29273;49.962;9.768;2023-03-14T02:06:41;97835.00;;;12.57;65.90
38780;BME280;29273;49.962;9.768;2023-03-14T02:09:07;97831.00;;;12.50;65.48
38780;BME280;29273;49.962;9.768;2023-03-14T02:11:34;97827.56;;;12.54;65.56
38780;BME280;29273;49.962;9.768;2023-03-14T02:14:04;97807.09;;;12.50;65.17
38780;BME280;29273;49.962;9.768;2023-03-14T02:16:38;97811.91;;;12.53;65.45
38780;BME280;29273;49.962;9.768;2023-03-14T02:19:35;97811.38;;;12.56;65.88
38780;BME280;29273;49.962;9.768;2023-03-14T02:22:21;97819.34;;;12.51;65.71
38780;BME280;29273;49.962;9.768;2023-03-14T02:27:33;97797.28;;;12.50;65.18
38780;BME280;29273;49.962;9.768;2023-03-14T02:30:02;97792.22;;;12.54;65.19
38780;BME280;29273;49.962;9.768;2023-03-14T02:32:31;97801.28;;;12.53;65.17
38780;BME280;29273;49.962;9.768;2023-03-14T02:34:59;97798.34;;;12.54;65.20
38780;BME280;29273;49.962;9.768;2023-03-14T02:37:32;97789.56;;;12.54;65.75
38780;BME280;29273;49.962;9.768;2023-03-14T02:40:00;97776.59;;;12.52;65.12
38780;BME280;29273;49.962;9.768;2023-03-14T02:42:26;97778.16;;;12.53;65.30
38780;BME280;29273;49.962;9.768;2023-03-14T02:45:01;97761.72;;;12.56;65.51
38780;BME280;29273;49.962;9.768;2023-03-14T02:47:57;97774.19;;;12.56;65.52
38780;BME280;29273;49.962;9.768;2023-03-14T02:50:29;97779.25;;;12.57;65.60
38780;BME280;29273;49.962;9.768;2023-03-14T02:52:56;97768.63;;;12.52;65.14
38780;BME280;29273;49.962;9.768;2023-03-14T02:55:22;97778.97;;;12.54;65.39
38780;BME280;29273;49.962;9.768;2023-03-14T02:57:49;97777.38;;;12.53;64.81
38780;BME280;29273;49.962;9.768;2023-03-14T03:00:16;97773.13;;;12.52;65.21
38780;BME280;29273;49.962;9.768;2023-03-14T03:02:42;97761.72;;;12.51;65.22
38780;BME280;29273;49.962;9.768;2023-03-14T03:05:07;97760.38;;;12.49;65.07
38780;BME280;29273;49.962;9.768;2023-03-14T03:07:33;97755.88;;;12.49;64.90
38780;BME280;29273;49.962;9.768;2023-03-14T03:09:58;97756.94;;;12.48;64.68
38780;BME280;29273;49.962;9.768;2023-03-14T03:12:24;97743.91;;;12.47;65.02
38780;BME280;29273;49.962;9.768;2023-03-14T03:14:49;97744.69;;;12.47;64.80
38780;BME280;29273;49.962;9.768;2023-03-14T03:17:15;97751.09;;;12.46;65.05
38780;BME280;29273;49.962;9.768;2023-03-14T03:19:40;97754.25;;;12.43;65.23
38780;BME280;29273;49.962;9.768;2023-03-14T03:22:06;97760.38;;;12.44;65.00
38780;BME280;29273;49.962;9.768;2023-03-14T03:24:32;97741.53;;;12.45;65.27
38780;BME280;29273;49.962;9.768;2023-03-14T03:26:57;97754.00;;;12.45;65.37
38780;BME280;29273;49.962;9.768;2023-03-14T03:29:23;97751.88;;;12.47;65.32
38780;BME280;29273;49.962;9.768;2023-03-14T03:31:49;97754.25;;;12.43;64.61
38780;BME280;29273;49.962;9.768;2023-03-14T03:34:15;97753.75;;;12.46;64.53
38780;BME280;29273;49.962;9.768;2023-03-14T03:36:41;97740.22;;;12.48;65.16
38780;BME280;29273;49.962;9.768;2023-03-14T03:39:07;97749.47;;;12.50;65.18
38780;BME280;29273;49.962;9.768;2023-03-14T03:41:33;97748.69;;;12.50;65.16
38780;BME280;29273;49.962;9.768;2023-03-14T03:43:59;97744.19;;;12.50;64.70
38780;BME280;29273;49.962;9.768;2023-03-14T03:46:25;97765.97;;;12.52;64.83
38780;BME280;29273;49.962;9.768;2023-03-14T03:48:58;97746.03;;;12.60;66.08
38780;BME280;29273;49.962;9.768;2023-03-14T03:51:26;97739.94;;;12.54;65.19
38780;BME280;29273;49.962;9.768;2023-03-14T03:53:52;97739.13;;;12.54;65.08
38780;BME280;29273;49.962;9.768;2023-03-14T03:56:24;97741.53;;;12.55;64.87
38780;BME280;29273;49.962;9.768;2023-03-14T03:58:49;97731.72;;;12.56;65.34
38780;BME280;29273;49.962;9.768;2023-03-14T04:01:16;97730.63;;;12.57;65.04
38780;BME280;29273;49.962;9.768;2023-03-14T04:03:44;97730.38;;;12.58;65.15
38780;BME280;29273;49.962;9.768;2023-03-14T04:06:12;97727.97;;;12.62;65.48
38780;BME280;29273;49.962;9.768;2023-03-14T04:08:40;97724.53;;;12.62;65.28
38780;BME280;29273;49.962;9.768;2023-03-14T04:11:08;97717.63;;;12.61;64.76
38780;BME280;29273;49.962;9.768;2023-03-14T04:13:47;97716.56;;;12.62;65.48
38780;BME280;29273;49.962;9.768;2023-03-14T04:16:16;97705.44;;;12.65;65.32
38780;BME280;29273;49.962;9.768;2023-03-14T04:18:42;97702.78;;;12.59;64.70
38780;BME280;29273;49.962;9.768;2023-03-14T04:21:08;97698.50;;;12.58;64.11
38780;BME280;29273;49.962;9.768;2023-03-14T04:23:46;97699.59;;;12.57;64.34
38780;BME280;29273;49.962;9.768;2023-03-14T04:26:13;97688.97;;;12.57;64.13
38780;BME280;29273;49.962;9.768;2023-03-14T04:28:38;97694.53;;;12.56;64.18
38780;BME280;29273;49.962;9.768;2023-03-14T04:31:14;97693.47;;;12.62;64.87
38780;BME280;29273;49.962;9.768;2023-03-14T04:33:40;97701.69;;;12.55;63.92
38780;BME280;29273;49.962;9.768;2023-03-14T04:36:07;97699.84;;;12.56;63.71
38780;BME280;29273;49.962;9.768;2023-03-14T04:38:33;97702.78;;;12.54;63.56
38780;BME280;29273;49.962;9.768;2023-03-14T04:40:59;97703.31;;;12.56;63.66
38780;BME280;29273;49.962;9.768;2023-03-14T04:43:29;97680.47;;;12.55;63.93
38780;BME280;29273;49.962;9.768;2023-03-14T04:46:01;97688.16;;;12.52;63.67
38780;BME280;29273;49.962;9.768;2023-03-14T04:48:27;97709.91;;;12.54;63.32
38780;BME280;29273;49.962;9.768;2023-03-14T04:50:53;97698.25;;;12.55;63.73
38780;BME280;29273;49.962;9.768;2023-03-14T04:53:19;97697.72;;;12.53;63.82
38780;BME280;29273;49.962;9.768;2023-03-14T04:55:49;97704.34;;;12.55;63.71
38780;BME280;29273;49.962;9.768;2023-03-14T04:58:15;97699.84;;;12.51;63.39
38780;BME280;29273;49.962;9.768;2023-03-14T05:00:42;97698.00;;;12.51;63.49
38780;BME280;29273;49.962;9.768;2023-03-14T05:03:29;97703.56;;;12.50;63.62
38780;BME280;29273;49.962;9.768;2023-03-14T05:06:12;97695.59;;;12.50;63.22
38780;BME280;29273;49.962;9.768;2023-03-14T05:08:57;97704.34;;;12.50;63.38
38780;BME280;29273;49.962;9.768;2023-03-14T05:11:41;97687.91;;;12.48;63.59
38780;BME280;29273;49.962;9.768;2023-03-14T05:14:25;97691.34;;;12.49;63.67
38780;BME280;29273;49.962;9.768;2023-03-14T05:17:17;97693.75;;;12.30;65.02
38780;BME280;29273;49.962;9.768;2023-03-14T05:20:10;97685.25;;;12.43;63.92
38780;BME280;29273;49.962;9.768;2023-03-14T05:23:16;97684.72;;;12.41;63.85
38780;BME280;29273;49.962;9.768;2023-03-14T05:25:50;97678.59;;;12.40;63.34
38780;BME280;29273;49.962;9.768;2023-03-14T05:28:34;97682.34;;;12.39;63.83
38780;BME280;29273;49.962;9.768;2023-03-14T05:31:23;97669.06;;;12.39;63.78
38780;BME280;29273;49.962;9.768;2023-03-14T05:34:07;97669.84;;;12.40;63.76
38780;BME280;29273;49.962;9.768;2023-03-14T05:36:52;97661.38;;;12.38;63.51
38780;BME280;29273;49.962;9.768;2023-03-14T05:39:32;97664.03;;;12.33;61.85
38780;BME280;29273;49.962;9.768;2023-03-14T05:42:25;97656.56;;;12.35;62.88
38780;BME280;29273;49.962;9.768;2023-03-14T05:45:08;97663.75;;;12.34;62.66
38780;BME280;29273;49.962;9.768;2023-03-14T05:47:52;97667.47;;;12.33;62.87
38780;BME280;29273;49.962;9.768;2023-03-14T05:50:28;97670.13;;;12.33;63.31
38780;BME280;29273;49.962;9.768;2023-03-14T05:53:12;97658.19;;;12.31;62.57
38780;BME280;29273;49.962;9.768;2023-03-14T05:55:53;97659.75;;;12.37;63.58
38780;BME280;29273;49.962;9.768;2023-03-14T05:58:42;97665.06;;;12.32;62.92
38780;BME280;29273;49.962;9.768;2023-03-14T06:01:31;97650.47;;;12.34;62.47
38780;BME280;29273;49.962;9.768;2023-03-14T06:04:08;97661.63;;;12.36;62.21
38780;BME280;29273;49.962;9.768;2023-03-14T06:06:34;97648.34;;;12.36;62.49
38780;BME280;29273;49.962;9.768;2023-03-14T06:09:00;97647.81;;;12.39;62.17
38780;BME280;29273;49.962;9.768;2023-03-14T06:11:27;97649.13;;;12.42;62.51
38780;BME280;29273;49.962;9.768;2023-03-14T06:13:53;97661.34;;;12.43;61.54
38780;BME280;29273;49.962;9.768;2023-03-14T06:16:18;97655.25;;;12.48;62.70
38780;BME280;29273;49.962;9.768;2023-03-14T06:18:44;97668.25;;;12.49;62.07
38780;BME280;29273;49.962;9.768;2023-03-14T06:21:12;97658.69;;;12.53;62.29
38780;BME280;29273;49.962;9.768;2023-03-14T06:23:38;97665.59;;;12.54;61.91
38780;BME280;29273;49.962;9.768;2023-03-14T06:26:05;97657.38;;;12.56;61.45
38780;BME280;29273;49.962;9.768;2023-03-14T06:28:30;97666.66;;;12.58;61.29
38780;BME280;29273;49.962;9.768;2023-03-14T06:31:00;97663.72;;;12.60;61.07
38780;BME280;29273;49.962;9.768;2023-03-14T06:33:30;97658.41;;;12.65;62.07
38780;BME280;29273;49.962;9.768;2023-03-14T06:35:56;97654.19;;;12.64;60.92
38780;BME280;29273;49.962;9.768;2023-03-14T06:38:21;97657.34;;;12.66;61.64
38780;BME280;29273;49.962;9.768;2023-03-14T06:40:51;97655.50;;;12.67;61.02
38780;BME280;29273;49.962;9.768;2023-03-14T06:43:27;97648.31;;;12.67;60.85
38780;BME280;29273;49.962;9.768;2023-03-14T06:45:53;97650.44;;;12.70;61.19
38780;BME280;29273;49.962;9.768;2023-03-14T06:48:18;97655.47;;;12.72;61.25
38780;BME280;29273;49.962;9.768;2023-03-14T06:50:49;97652.81;;;12.72;60.75
38780;BME280;29273;49.962;9.768;2023-03-14T06:53:15;97641.16;;;12.73;60.78
38780;BME280;29273;49.962;9.768;2023-03-14T06:55:42;97640.63;;;12.71;60.00
38780;BME280;29273;49.962;9.768;2023-03-14T06:58:09;97639.28;;;12.73;60.63
38780;BME280;29273;49.962;9.768;2023-03-14T07:00:40;97631.59;;;12.72;59.78
38780;BME280;29273;49.962;9.768;2023-03-14T07:03:06;97633.69;;;12.75;59.85
38780;BME280;29273;49.962;9.768;2023-03-14T07:05:37;97638.75;;;12.76;59.75
38780;BME280;29273;49.962;9.768;2023-03-14T07:08:06;97635.03;;;12.77;59.09
38780;BME280;29273;49.962;9.768;2023-03-14T07:10:32;97634.50;;;12.81;60.25
38780;BME280;29273;49.962;9.768;2023-03-14T07:12:57;97634.22;;;12.82;60.28
38780;BME280;29273;49.962;9.768;2023-03-14T07:15:26;97637.94;;;12.86;60.55
38780;BME280;29273;49.962;9.768;2023-03-14T07:17:56;97638.44;;;12.88;60.66
38780;BME280;29273;49.962;9.768;2023-03-14T07:20:23;97636.03;;;12.92;60.51
38780;BME280;29273;49.962;9.768;2023-03-14T07:22:49;97637.13;;;12.96;60.54
38780;BME280;29273;49.962;9.768;2023-03-14T07:25:17;97627.78;;;12.99;60.57
38780;BME280;29273;49.962;9.768;2023-03-14T07:27:43;97631.78;;;13.01;60.12
38780;BME280;29273;49.962;9.768;2023-03-14T07:30:12;97629.63;;;13.08;61.49
38780;BME280;29273;49.962;9.768;2023-03-14T07:32:38;97632.56;;;13.07;60.30
38780;BME280;29273;49.962;9.768;2023-03-14T07:35:03;97633.38;;;13.07;60.21
38780;BME280;29273;49.962;9.768;2023-03-14T07:37:30;97648.75;;;13.10;59.33
38780;BME280;29273;49.962;9.768;2023-03-14T07:39:57;97648.22;;;13.13;59.66
38780;BME280;29273;49.962;9.768;2023-03-14T07:42:25;97639.97;;;13.15;60.05
38780;BME280;29273;49.962;9.768;2023-03-14T07:45:10;97646.63;;;13.18;60.48
38780;BME280;29273;49.962;9.768;2023-03-14T07:47:36;97645.00;;;13.17;60.22
38780;BME280;29273;49.962;9.768;2023-03-14T07:50:03;97650.84;;;13.19;59.75
38780;BME280;29273;49.962;9.768;2023-03-14T07:52:29;97663.88;;;13.20;59.66
38780;BME280;29273;49.962;9.768;2023-03-14T07:54:54;97664.13;;;13.19;59.18
38780;BME280;29273;49.962;9.768;2023-03-14T07:57:20;97666.25;;;13.22;60.19
38780;BME280;29273;49.962;9.768;2023-03-14T07:59:45;97666.78;;;13.24;60.65
38780;BME280;29273;49.962;9.768;2023-03-14T08:02:11;97663.06;;;13.25;61.04
38780;BME280;29273;49.962;9.768;2023-03-14T08:04:39;97678.22;;;13.24;60.02
38780;BME280;29273;49.962;9.768;2023-03-14T08:07:05;97677.13;;;13.25;59.91
38780;BME280;29273;49.962;9.768;2023-03-14T08:09:30;97685.13;;;13.20;59.76
38780;BME280;29273;49.962;9.768;2023-03-14T08:11:56;97674.75;;;13.24;60.25
38780;BME280;29273;49.962;9.768;2023-03-14T08:14:21;97675.56;;;13.24;60.91
38780;BME280;29273;49.962;9.768;2023-03-14T08:16:50;97682.44;;;13.25;61.67
38780;BME280;29273;49.962;9.768;2023-03-14T08:19:16;97680.88;;;13.24;61.56
38780;BME280;29273;49.962;9.768;2023-03-14T08:21:41;97682.44;;;13.25;61.65
38780;BME280;29273;49.962;9.768;2023-03-14T08:24:07;97680.59;;;13.26;61.44
38780;BME280;29273;49.962;9.768;2023-03-14T08:26:32;97674.47;;;13.25;61.48
38780;BME280;29273;49.962;9.768;2023-03-14T08:28:58;97676.34;;;13.25;61.95
38780;BME280;29273;49.962;9.768;2023-03-14T08:31:24;97680.06;;;13.29;61.80
38780;BME280;29273;49.962;9.768;2023-03-14T08:33:49;97690.41;;;13.30;61.08
38780;BME280;29273;49.962;9.768;2023-03-14T08:36:17;97669.97;;;13.31;61.24
38780;BME280;29273;49.962;9.768;2023-03-14T08:38:43;97662.78;;;13.31;60.09
38780;BME280;29273;49.962;9.768;2023-03-14T08:41:09;97663.03;;;13.35;60.75
38780;BME280;29273;49.962;9.768;2023-03-14T08:43:36;97662.25;;;13.35;59.67
38780;BME280;29273;49.962;9.768;2023-03-14T08:46:02;97661.19;;;13.36;59.96
38780;BME280;29273;49.962;9.768;2023-03-14T08:48:28;97670.22;;;13.40;60.71
38780;BME280;29273;49.962;9.768;2023-03-14T08:50:56;97676.88;;;13.42;60.86
38780;BME280;29273;49.962;9.768;2023-03-14T08:53:21;97667.56;;;13.40;59.57
38780;BME280;29273;49.962;9.768;2023-03-14T08:55:54;97673.91;;;13.49;61.09
38780;BME280;29273;49.962;9.768;2023-03-14T08:58:20;97671.25;;;13.44;59.97
38780;BME280;29273;49.962;9.768;2023-03-14T09:00:46;97678.41;;;13.48;61.14
38780;BME280;29273;49.962;9.768;2023-03-14T09:03:12;97678.41;;;13.48;60.07
38780;BME280;29273;49.962;9.768;2023-03-14T09:05:38;97689.03;;;13.48;59.72
38780;BME280;29273;49.962;9.768;2023-03-14T09:08:03;97684.25;;;13.50;60.27
38780;BME280;29273;49.962;9.768;2023-03-14T09:10:29;97676.81;;;13.53;60.89
38780;BME280;29273;49.962;9.768;2023-03-14T09:12:54;97685.56;;;13.53;60.61
38780;BME280;29273;49.962;9.768;2023-03-14T09:15:20;97683.44;;;13.55;60.76
38780;BME280;29273;49.962;9.768;2023-03-14T09:17:45;97676.28;;;13.56;59.98
38780;BME280;29273;49.962;9.768;2023-03-14T09:20:11;97687.94;;;13.60;61.05
38780;BME280;29273;49.962;9.768;2023-03-14T09:22:37;97679.16;;;13.64;61.74
38780;BME280;29273;49.962;9.768;2023-03-14T09:25:03;97679.38;;;13.68;61.57
38780;BME280;29273;49.962;9.768;2023-03-14T09:27:29;97682.28;;;13.72;61.86
38780;BME280;29273;49.962;9.768;2023-03-14T09:29:55;97688.13;;;13.74;61.34
38780;BME280;29273;49.962;9.768;2023-03-14T09:32:20;97694.78;;;13.76;61.21
38780;BME280;29273;49.962;9.768;2023-03-14T09:34:46;97689.69;;;13.80;61.34
38780;BME280;29273;49.962;9.768;2023-03-14T09:37:11;97698.75;;;13.84;61.15
38780;BME280;29273;49.962;9.768;2023-03-14T09:39:37;97691.53;;;13.84;61.05
38780;BME280;29273;49.962;9.768;2023-03-14T09:42:04;97704.31;;;13.87;60.84
38780;BME280;29273;49.962;9.768;2023-03-14T09:44:37;97705.31;;;13.97;62.33
38780;BME280;29273;49.962;9.768;2023-03-14T09:47:06;97708.25;;;13.95;62.12
38780;BME280;29273;49.962;9.768;2023-03-14T09:49:35;97703.47;;;13.97;61.77
38780;BME280;29273;49.962;9.768;2023-03-14T09:52:07;97702.34;;;14.03;62.80
38780;BME280;29273;49.962;9.768;2023-03-14T09:54:43;97703.16;;;14.04;62.34
38780;BME280;29273;49.962;9.768;2023-03-14T09:57:15;97701.78;;;14.06;63.18
38780;BME280;29273;49.962;9.768;2023-03-14T09:59:44;97706.59;;;14.04;62.10
38780;BME280;29273;49.962;9.768;2023-03-14T10:02:30;97699.63;;;14.09;63.02
38780;BME280;29273;49.962;9.768;2023-03-14T10:04:56;97690.34;;;14.06;61.28
38780;BME280;29273;49.962;9.768;2023-03-14T10:07:32;97693.53;;;14.08;60.74
38780;BME280;29273;49.962;9.768;2023-03-14T10:09:58;97698.84;;;14.08;60.96
38780;BME280;29273;49.962;9.768;2023-03-14T10:12:35;97689.22;;;14.17;62.83
38780;BME280;29273;49.962;9.768;2023-03-14T10:15:04;97692.94;;;14.16;62.21
38780;BME280;29273;49.962;9.768;2023-03-14T10:17:38;97690.00;;;14.18;62.08
38780;BME280;29273;49.962;9.768;2023-03-14T10:20:05;97688.94;;;14.19;61.90
38780;BME280;29273;49.962;9.768;2023-03-14T10:22:31;97688.38;;;14.22;61.09
38780;BME280;29273;49.962;9.768;2023-03-14T10:25:25;97691.53;;;14.29;62.96
38780;BME280;29273;49.962;9.768;2023-03-14T10:27:51;97687.78;;;14.30;61.40
38780;BME280;29273;49.962;9.768;2023-03-14T10:32:53;97692.00;;;14.36;60.62
38780;BME280;29273;49.962;9.768;2023-03-14T10:35:21;97699.16;;;14.41;61.00
38780;BME280;29273;49.962;9.768;2023-03-14T10:37:59;97694.31;;;14.48;62.55
38780;BME280;29273;49.962;9.768;2023-03-14T10:40:28;97691.91;;;14.47;62.27
38780;BME280;29273;49.962;9.768;2023-03-14T10:42:55;97684.75;;;14.42;60.70
38780;BME280;29273;49.962;9.768;2023-03-14T10:47:53;97681.59;;;14.40;60.51
38780;BME280;29273;49.962;9.768;2023-03-14T10:50:28;97682.88;;;14.48;62.57
38780;BME280;29273;49.962;9.768;2023-03-14T10:52:56;97677.03;;;14.46;61.41
38780;BME280;29273;49.962;9.768;2023-03-14T10:55:24;97675.66;;;14.48;61.60
38780;BME280;29273;49.962;9.768;2023-03-14T10:57:51;97674.38;;;14.46;60.64
38780;BME280;29273;49.962;9.768;2023-03-14T11:00:22;97673.78;;;14.54;62.06
38780;BME280;29273;49.962;9.768;2023-03-14T11:03:03;97682.28;;;14.56;62.73
38780;BME280;29273;49.962;9.768;2023-03-14T11:08:20;97663.94;;;14.49;60.66
38780;BME280;29273;49.962;9.768;2023-03-14T11:10:53;97663.94;;;14.49;60.72
38780;BME280;29273;49.962;9.768;2023-03-14T11:16:39;97673.78;;;14.49;62.48
38780;BME280;29273;49.962;9.768;2023-03-14T11:19:31;97667.69;;;14.48;61.63
38780;BME280;29273;49.962;9.768;2023-03-14T11:27:17;97664.75;;;14.50;63.30
38780;BME280;29273;49.962;9.768;2023-03-14T11:32:53;97674.66;;;14.44;62.48
38780;BME280;29273;49.962;9.768;2023-03-14T11:35:28;97674.66;;;14.44;62.41
38780;BME280;29273;49.962;9.768;2023-03-14T11:38:12;97677.63;;;14.37;61.70
38780;BME280;29273;49.962;9.768;2023-03-14T11:40:38;97673.91;;;14.33;61.65
38780;BME280;29273;49.962;9.768;2023-03-14T11:46:20;97674.69;;;14.34;63.25
38780;BME280;29273;49.962;9.768;2023-03-14T11:48:59;97675.75;;;14.38;63.86
38780;BME280;29273;49.962;9.768;2023-03-14T11:51:32;97673.88;;;14.38;63.78
38780;BME280;29273;49.962;9.768;2023-03-14T11:54:20;97675.25;;;14.36;64.20
38780;BME280;29273;49.962;9.768;2023-03-14T11:56:59;97663.22;;;14.38;64.13
38780;BME280;29273;49.962;9.768;2023-03-14T12:02:58;97662.44;;;14.38;64.23
38780;BME280;29273;49.962;9.768;2023-03-14T12:11:12;97650.22;;;14.32;64.04
38780;BME280;29273;49.962;9.768;2023-03-14T12:13:41;97654.81;;;14.26;63.53
38780;BME280;29273;49.962;9.768;2023-03-14T12:18:54;97655.91;;;14.20;63.16
38780;BME280;29273;49.962;9.768;2023-03-14T12:21:20;97656.69;;;14.20;63.18
38780;BME280;29273;49.962;9.768;2023-03-14T12:23:48;97636.78;;;14.18;63.63
38780;BME280;29273;49.962;9.768;2023-03-14T12:26:24;97635.94;;;14.22;64.31
38780;BME280;29273;49.962;9.768;2023-03-14T12:41:53;97639.00;;;14.00;63.37
38780;BME280;29273;49.962;9.768;2023-03-14T12:46:57;97641.44;;;13.97;63.25
38780;BME280;29273;49.962;9.768;2023-03-14T12:49:29;97640.66;;;13.96;63.69
38780;BME280;29273;49.962;9.768;2023-03-14T12:51:59;97641.19;;;13.93;63.57
38780;BME280;29273;49.962;9.768;2023-03-14T12:54:38;97642.25;;;13.92;63.66
38780;BME280;29273;49.962;9.768;2023-03-14T12:59:48;97641.47;;;13.92;64.57
38780;BME280;29273;49.962;9.768;2023-03-14T13:02:38;97651.09;;;13.87;64.40
38780;BME280;29273;49.962;9.768;2023-03-14T13:05:11;97662.50;;;13.93;64.78
38780;BME280;29273;49.962;9.768;2023-03-14T13:10:48;97663.03;;;13.90;64.51
38780;BME280;29273;49.962;9.768;2023-03-14T13:13:23;97660.34;;;13.95;65.36
38780;BME280;29273;49.962;9.768;2023-03-14T13:15:55;97669.41;;;13.94;64.93
38780;BME280;29273;49.962;9.768;2023-03-14T13:18:36;97675.00;;;13.93;64.88
38780;BME280;29273;49.962;9.768;2023-03-14T13:21:21;97702.16;;;13.90;64.29
38780;BME280;29273;49.962;9.768;2023-03-14T13:24:05;97741.59;;;13.72;60.74
38780;BME280;29273;49.962;9.768;2023-03-14T13:26:36;97779.94;;;13.71;61.45
38780;BME280;29273;49.962;9.768;2023-03-14T13:29:22;97793.00;;;13.62;57.56
38780;BME280;29273;49.962;9.768;2023-03-14T13:32:12;97847.78;;;13.63;58.34
38780;BME280;29273;49.962;9.768;2023-03-14T13:34:38;97872.50;;;13.54;56.38
38780;BME280;29273;49.962;9.768;2023-03-14T13:37:03;97865.38;;;13.49;56.43
38780;BME280;29273;49.962;9.768;2023-03-14T13:39:29;97908.97;;;13.43;56.43
38780;BME280;29273;49.962;9.768;2023-03-14T13:41:59;97892.50;;;13.41;56.60
38780;BME280;29273;49.962;9.768;2023-03-14T13:44:31;97902.56;;;13.39;58.30
38780;BME280;29273;49.962;9.768;2023-03-14T13:47:00;97927.28;;;13.29;57.59
38780;BME280;29273;49.962;9.768;2023-03-14T13:49:28;97933.13;;;13.26;56.91
38780;BME280;29273;49.962;9.768;2023-03-14T13:51:56;97922.75;;;13.19;56.58
38780;BME280;29273;49.962;9.768;2023-03-14T13:54:22;97944.28;;;13.18;56.45
38780;BME280;29273;49.962;9.768;2023-03-14T13:56:48;97950.38;;;13.18;56.74
38780;BME280;29273;49.962;9.768;2023-03-14T13:59:25;97960.22;;;13.12;56.32
38780;BME280;29273;49.962;9.768;2023-03-14T14:01:51;97971.66;;;13.13;56.82
38780;BME280;29273;49.962;9.768;2023-03-14T14:04:19;97961.28;;;13.11;55.89
38780;BME280;29273;49.962;9.768;2023-03-14T14:06:49;97983.63;;;13.16;57.65
38780;BME280;29273;49.962;9.768;2023-03-14T14:09:29;97994.25;;;13.16;58.64
38780;BME280;29273;49.962;9.768;2023-03-14T14:12:02;97990.78;;;13.15;57.92
38780;BME280;29273;49.962;9.768;2023-03-14T14:14:40;98003.03;;;13.16;58.16
38780;BME280;29273;49.962;9.768;2023-03-14T14:17:21;98020.53;;;13.17;59.46
38780;BME280;29273;49.962;9.768;2023-03-14T14:19:48;98023.19;;;13.12;57.34
38780;BME280;29273;49.962;9.768;2023-03-14T14:22:15;98008.84;;;13.13;56.00